Time;durP1;ratioP1;P1;durP2;ratioP2;P2;SDS_P1;SDS_P2;PMS_P1;PMS_P2;Temp;Humidity;BMP_temperature;BMP_pressure;BME280_temperature;BME280_humidity;BME280_pressure;Samples;Min_cycle;Max_cycle;Signal;HPM_P1;HPM_P2
2022/06/03 00:02:07;;;;;;;;;;;11.90;99.90;;;;;;5049111;28;20052;-68
2022/06/03 00:04:59;;;;;;;4.82;1.40;;;11.60;99.90;;;;;;5038135;28;19936;-68
2022/06/03 00:07:57;;;;;;;2.42;1.50;;;11.80;99.90;;;;;;5029308;28;20018;-68
2022/06/03 00:10:33;;;;;;;4.35;1.98;;;12.00;99.90;;;;;;5027293;28;20034;-68
2022/06/03 00:13:19;;;;;;;4.38;1.35;;;12.00;99.90;;;;;;5033350;28;20041;-69
2022/06/03 00:16:00;;;;;;;5.15;1.65;;;12.20;99.90;;;;;;5031893;28;20037;-69
2022/06/03 00:18:50;;;;;;;5.85;2.05;;;12.20;99.90;;;;;;5025068;28;20021;-69
2022/06/03 00:22:19;;;;;;;5.35;1.77;;;12.30;99.90;;;;;;5046852;28;20069;-68
2022/06/03 00:25:02;;;;;;;2.85;2.00;;;12.20;99.90;;;;;;5065100;28;20035;-68
2022/06/03 00:27:53;;;;;;;3.85;2.00;;;12.00;99.90;;;;;;5066215;28;20036;-68
2022/06/03 00:30:43;;;;;;;4.40;1.27;;;11.90;99.90;;;;;;5047025;28;20044;-67
2022/06/03 00:33:27;;;;;;;4.55;1.13;;;12.00;99.90;;;;;;5026999;28;20097;-68
2022/06/03 00:36:01;;;;;;;2.08;1.40;;;12.00;99.90;;;;;;5035035;28;20029;-68
2022/06/03 00:39:02;;;;;;;3.78;1.80;;;12.20;99.90;;;;;;5026962;28;20135;-69
2022/06/03 00:41:51;;;;;;;5.55;1.40;;;12.30;99.90;;;;;;5036665;28;20383;-69
2022/06/03 00:44:49;;;;;;;3.60;1.48;;;12.50;99.90;;;;;;5026386;28;20022;-68
2022/06/03 00:47:34;;;;;;;3.95;1.30;;;12.60;99.90;;;;;;5028503;28;20436;-69
2022/06/03 00:50:19;;;;;;;2.50;1.30;;;12.70;99.90;;;;;;5037724;28;20073;-69
2022/06/03 00:52:52;;;;;;;3.22;1.00;;;12.70;99.90;;;;;;5023182;28;20557;-69
2022/06/03 00:55:45;;;;;;;2.00;1.02;;;12.90;99.90;;;;;;5031946;28;20103;-69
2022/06/03 00:58:45;;;;;;;3.53;0.88;;;13.00;99.90;;;;;;5030610;28;20418;-69
2022/06/03 01:01:20;;;;;;;2.72;0.88;;;13.10;99.90;;;;;;5025661;28;20032;-68
2022/06/03 01:03:53;;;;;;;6.60;1.02;;;13.20;99.90;;;;;;5033461;28;20090;-68
2022/06/03 01:06:37;;;;;;;2.72;1.20;;;13.20;99.90;;;;;;5031915;28;20503;-69
2022/06/03 01:09:28;;;;;;;4.53;1.58;;;13.20;99.90;;;;;;5036124;28;20045;-68
2022/06/03 01:12:21;;;;;;;2.88;1.00;;;13.20;99.90;;;;;;5023252;28;20026;-68
2022/06/03 01:15:03;;;;;;;3.10;1.05;;;13.40;99.90;;;;;;5038132;28;20056;-68
2022/06/03 01:17:57;;;;;;;6.28;1.55;;;13.50;99.90;;;;;;5039999;28;20039;-68
2022/06/03 01:20:53;;;;;;;5.78;1.27;;;13.50;99.90;;;;;;5030256;28;20076;-68
2022/06/03 01:23:50;;;;;;;1.52;0.70;;;13.40;99.90;;;;;;5046332;28;20049;-68
2022/06/03 01:26:44;;;;;;;2.03;0.73;;;13.50;99.90;;;;;;5031626;28;20028;-68
2022/06/03 01:29:33;;;;;;;3.10;0.85;;;13.60;99.90;;;;;;5036569;28;20042;-68
2022/06/03 01:32:17;;;;;;;1.90;0.50;;;13.90;99.90;;;;;;5033646;28;20025;-68
2022/06/03 01:35:11;;;;;;;3.67;0.50;;;13.90;99.90;;;;;;5020915;28;20014;-68
2022/06/03 01:38:10;;;;;;;4.15;0.70;;;14.00;99.90;;;;;;5021007;28;20362;-69
2022/06/03 01:40:59;;;;;;;1.85;0.63;;;14.20;99.90;;;;;;5018072;28;20040;-68
2022/06/03 01:43:51;;;;;;;2.95;0.60;;;14.20;99.90;;;;;;5018909;28;20089;-67
2022/06/03 01:46:33;;;;;;;1.55;0.65;;;14.30;99.90;;;;;;5017920;28;20022;-68
2022/06/03 01:49:21;;;;;;;2.40;0.63;;;14.40;99.90;;;;;;5018966;28;20451;-69
2022/06/03 01:52:21;;;;;;;0.85;0.35;;;14.60;99.90;;;;;;5016502;28;20022;-68
2022/06/03 01:55:06;;;;;;;1.35;0.60;;;15.00;99.90;;;;;;5024922;28;20042;-68
2022/06/03 01:58:03;;;;;;;2.90;0.82;;;15.40;99.90;;;;;;5016632;28;20040;-68
2022/06/03 02:00:41;;;;;;;1.13;0.40;;;15.20;99.90;;;;;;5028377;28;20123;-68
2022/06/03 02:03:15;;;;;;;2.03;0.70;;;15.50;99.90;;;;;;5035954;28;20056;-68
2022/06/03 02:06:00;;;;;;;1.52;0.50;;;15.60;99.90;;;;;;5034770;28;20018;-68
2022/06/03 02:08:54;;;;;;;0.98;0.47;;;15.70;99.90;;;;;;5034603;28;20097;-69
2022/06/03 02:11:37;;;;;;;1.67;0.65;;;15.70;99.90;;;;;;5035840;28;20022;-68
2022/06/03 02:14:51;;;;;;;2.45;0.98;;;15.50;99.90;;;;;;5034302;28;20075;-68
2022/06/03 02:17:55;;;;;;;4.63;1.60;;;15.70;99.90;;;;;;5033530;28;20046;-68
2022/06/03 02:20:43;;;;;;;3.25;0.70;;;15.70;99.90;;;;;;5034260;28;20116;-68
2022/06/03 02:23:22;;;;;;;2.95;0.80;;;16.40;99.90;;;;;;5028201;28;20026;-68
2022/06/03 02:26:18;;;;;;;1.95;0.68;;;16.30;99.90;;;;;;5024363;28;20017;-68
2022/06/03 02:32:28;;;;;;;1.42;0.73;;;15.60;99.90;;;;;;5035235;28;20029;-68
2022/06/03 02:35:16;;;;;;;3.83;0.40;;;15.50;99.90;;;;;;5034654;28;20047;-68
2022/06/03 02:38:09;;;;;;;2.95;0.77;;;15.40;99.90;;;;;;5032238;28;20393;-68
2022/06/03 02:41:00;;;;;;;2.97;0.60;;;15.70;99.90;;;;;;5029082;28;20025;-68
2022/06/03 02:43:57;;;;;;;4.05;0.68;;;15.40;99.90;;;;;;5035437;28;20120;-68
2022/06/03 02:47:02;;;;;;;3.63;0.82;;;15.90;99.90;;;;;;5034891;28;20061;-68
2022/06/03 02:49:41;;;;;;;;;;;15.50;99.90;;;;;;5039191;28;20045;-68
2022/06/03 02:52:32;;;;;;;2.22;0.38;;;15.50;99.90;;;;;;5033876;28;19909;-68
2022/06/03 02:55:30;;;;;;;2.63;0.40;;;15.20;99.90;;;;;;5018962;28;20042;-68
2022/06/03 02:58:18;;;;;;;1.38;0.50;;;15.00;99.90;;;;;;5025696;28;20041;-68
2022/06/03 03:01:22;;;;;;;1.63;0.98;;;14.80;99.90;;;;;;5029472;28;20041;-68
2022/06/03 03:04:22;;;;;;;1.27;0.40;;;14.80;99.90;;;;;;5030822;28;20026;-68
2022/06/03 03:07:04;;;;;;;2.58;0.95;;;14.70;99.90;;;;;;5020370;28;20041;-68
2022/06/03 03:09:40;;;;;;;1.20;0.57;;;14.60;99.90;;;;;;5032896;28;20022;-68
2022/06/03 03:12:51;;;;;;;2.47;0.40;;;14.60;99.90;;;;;;5035306;28;20398;-69
2022/06/03 03:15:40;;;;;;;2.85;0.50;;;14.40;99.90;;;;;;5039732;28;20181;-68
2022/06/03 03:18:43;;;;;;;1.75;0.38;;;14.50;99.90;;;;;;5034376;28;20034;-68
2022/06/03 03:21:23;;;;;;;2.05;0.65;;;14.50;99.90;;;;;;5035929;28;20117;-68
2022/06/03 03:24:05;;;;;;;0.80;0.30;;;14.60;99.90;;;;;;5030451;28;20022;-68
2022/06/03 03:26:41;;;;;;;1.48;0.63;;;14.50;99.90;;;;;;5026942;28;21362;-69
2022/06/03 03:29:23;;;;;;;2.97;0.45;;;14.40;99.90;;;;;;5037131;28;20025;-69
2022/06/03 03:31:58;;;;;;;1.80;0.45;;;14.40;99.90;;;;;;5026053;28;20151;-68
2022/06/03 03:34:24;;;;;;;;;;;14.30;99.90;;;;;;5027190;28;20025;-68
2022/06/03 03:37:28;;;;;;;1.77;0.70;;;14.30;99.90;;;;;;5028164;28;19929;-68
2022/06/03 03:40:30;;;;;;;1.48;0.50;;;14.40;99.90;;;;;;5030893;28;20040;-68
2022/06/03 03:43:21;;;;;;;2.42;0.70;;;14.40;99.90;;;;;;5028230;28;20049;-68
2022/06/03 03:46:23;;;;;;;3.25;0.60;;;14.40;99.90;;;;;;5025789;28;20563;-68
2022/06/03 03:49:26;;;;;;;3.70;0.50;;;14.40;99.90;;;;;;5030901;28;20086;-68
2022/06/03 03:51:53;;;;;;;3.83;0.65;;;14.40;99.90;;;;;;5028253;28;20493;-68
2022/06/03 03:54:51;;;;;;;2.28;0.52;;;14.50;99.90;;;;;;5035695;28;20057;-68
2022/06/03 03:57:47;;;;;;;5.68;1.02;;;14.40;99.90;;;;;;5033612;28;20124;-68
2022/06/03 04:00:25;;;;;;;5.75;0.45;;;14.40;99.90;;;;;;5029893;28;20049;-67
2022/06/03 04:03:17;;;;;;;1.40;0.30;;;14.30;99.90;;;;;;5033002;28;20033;-68
2022/06/03 04:06:18;;;;;;;4.00;0.50;;;14.40;99.90;;;;;;5026698;28;20022;-68
2022/06/03 04:09:21;;;;;;;3.88;0.60;;;14.60;99.90;;;;;;5026212;28;20045;-68
2022/06/03 04:12:12;;;;;;;4.50;1.90;;;14.60;99.90;;;;;;5022042;28;20034;-68
2022/06/03 04:14:48;;;;;;;2.85;0.60;;;14.60;99.90;;;;;;5041189;28;20080;-69
2022/06/03 04:17:25;;;;;;;1.60;0.43;;;14.50;99.90;;;;;;5035301;28;20028;-69
2022/06/03 04:20:29;;;;;;;4.88;0.63;;;14.40;99.90;;;;;;5020084;28;20494;-68
2022/06/03 04:23:31;;;;;;;5.35;1.98;;;14.40;99.90;;;;;;5024124;28;20379;-68
2022/06/03 04:26:17;;;;;;;3.95;1.08;;;14.40;99.90;;;;;;5025973;28;20022;-68
2022/06/03 04:29:07;;;;;;;4.20;0.60;;;14.40;99.90;;;;;;5022783;28;20444;-68
2022/06/03 04:31:53;;;;;;;3.65;0.50;;;14.40;99.90;;;;;;5017081;28;20113;-68
2022/06/03 04:34:39;;;;;;;2.65;0.38;;;14.40;99.90;;;;;;5028006;28;20615;-69
2022/06/03 04:37:28;;;;;;;14.10;1.52;;;14.50;99.90;;;;;;5031939;28;20037;-68
2022/06/03 04:40:31;;;;;;;4.05;1.30;;;14.60;99.90;;;;;;5025037;28;20032;-68
2022/06/03 04:43:23;;;;;;;2.05;0.90;;;14.60;99.90;;;;;;5030888;28;20033;-67
2022/06/03 04:46:19;;;;;;;3.28;1.20;;;14.60;99.90;;;;;;5040734;28;20497;-68
2022/06/03 04:49:20;;;;;;;2.08;0.70;;;14.60;99.90;;;;;;5050798;28;20478;-67
2022/06/03 04:52:12;;;;;;;2.33;0.70;;;14.60;99.90;;;;;;5037368;28;20026;-67
2022/06/03 04:54:51;;;;;;;2.45;0.95;;;14.60;99.90;;;;;;5040135;28;20043;-67
2022/06/03 04:57:24;;;;;;;2.25;0.80;;;14.60;99.90;;;;;;5040549;28;20386;-68
2022/06/03 05:00:13;;;;;;;2.88;0.63;;;14.60;99.90;;;;;;5038887;28;20089;-67
2022/06/03 05:03:21;;;;;;;1.13;0.22;;;14.60;99.90;;;;;;5031441;28;20487;-67
2022/06/03 05:06:11;;;;;;;1.48;0.63;;;14.60;99.90;;;;;;5039322;28;20023;-69
2022/06/03 05:09:03;;;;;;;1.80;0.85;;;14.60;99.90;;;;;;5030998;28;20034;-68
2022/06/03 05:11:33;;;;;;;2.83;0.52;;;14.60;99.90;;;;;;5030097;28;20436;-68
2022/06/03 05:14:24;;;;;;;2.17;0.63;;;14.70;99.90;;;;;;5023823;28;20022;-68
2022/06/03 05:17:09;;;;;;;1.15;0.40;;;14.70;99.90;;;;;;5029755;28;20029;-68
2022/06/03 05:19:46;;;;;;;1.88;0.40;;;14.60;99.90;;;;;;5027565;28;20040;-69
2022/06/03 05:22:44;;;;;;;1.45;0.35;;;14.60;99.90;;;;;;5029742;28;20025;-69
2022/06/03 05:25:47;;;;;;;1.17;0.25;;;14.50;99.90;;;;;;5036193;28;20430;-68
2022/06/03 05:28:36;;;;;;;3.20;0.30;;;14.50;99.90;;;;;;5026116;28;20060;-69
2022/06/03 05:31:52;;;;;;;1.88;0.30;;;14.50;99.90;;;;;;5021332;28;20099;-68
2022/06/03 05:35:06;;;;;;;0.60;0.30;;;14.40;99.90;;;;;;5036447;28;20025;-68
2022/06/03 05:37:42;;;;;;;1.17;0.35;;;14.30;99.90;;;;;;5048449;28;20037;-68
2022/06/03 05:40:27;;;;;;;3.25;0.88;;;14.20;99.90;;;;;;5049272;28;20346;-68
2022/06/03 05:43:17;;;;;;;1.73;0.40;;;14.10;99.90;;;;;;5038708;28;20060;-69
2022/06/03 05:46:35;;;;;;;1.02;0.40;;;14.10;99.90;;;;;;5035306;28;20025;-68
2022/06/03 05:49:12;;;;;;;1.00;0.20;;;14.10;99.90;;;;;;5037854;28;20041;-68
2022/06/03 05:52:09;;;;;;;1.63;0.40;;;14.10;99.90;;;;;;5041100;28;20548;-69
2022/06/03 05:55:09;;;;;;;1.98;0.50;;;14.00;99.90;;;;;;5041104;28;20054;-69
2022/06/03 05:57:54;;;;;;;1.48;0.50;;;14.00;99.90;;;;;;5041204;28;20033;-68
2022/06/03 06:00:39;;;;;;;3.00;0.40;;;13.90;99.90;;;;;;5044471;28;20029;-68
2022/06/03 06:03:43;;;;;;;3.10;0.30;;;13.90;99.90;;;;;;5033017;28;20474;-69
2022/06/03 06:06:25;;;;;;;2.92;0.65;;;13.80;99.90;;;;;;5034308;28;20059;-68
2022/06/03 06:09:12;;;;;;;1.15;0.40;;;13.90;99.90;;;;;;5038620;28;20025;-69
2022/06/03 06:12:12;;;;;;;2.38;0.50;;;13.80;99.90;;;;;;5039460;28;20108;-69
2022/06/03 06:14:55;;;;;;;1.27;0.50;;;13.80;99.90;;;;;;5051209;28;20021;-68
2022/06/03 06:17:42;;;;;;;1.35;0.55;;;13.60;99.90;;;;;;5032229;28;20116;-69
2022/06/03 06:20:28;;;;;;;1.30;0.30;;;13.60;99.90;;;;;;5042081;28;20112;-68
2022/06/03 06:23:04;;;;;;;2.38;0.43;;;13.60;99.90;;;;;;5046345;28;20048;-68
2022/06/03 06:25:37;;;;;;;3.58;0.50;;;13.60;99.90;;;;;;5053007;28;20108;-68
2022/06/03 06:28:26;;;;;;;1.42;0.30;;;13.60;99.90;;;;;;5037799;28;20453;-69
2022/06/03 06:31:08;;;;;;;2.83;0.50;;;13.50;99.90;;;;;;5030883;28;20492;-69
2022/06/03 06:33:38;;;;;;;2.55;0.30;;;13.60;99.90;;;;;;5017551;28;20034;-70
2022/06/03 06:36:42;;;;;;;2.45;0.65;;;13.60;99.90;;;;;;5023988;28;20033;-68
2022/06/03 06:39:30;;;;;;;1.85;0.35;;;13.70;99.90;;;;;;5021819;28;20041;-69
2022/06/03 06:42:14;;;;;;;1.73;0.30;;;13.60;99.90;;;;;;5029792;28;20025;-68
2022/06/03 06:45:10;;;;;;;3.78;0.40;;;13.60;99.90;;;;;;5030739;28;20097;-69
2022/06/03 06:48:05;;;;;;;2.05;0.40;;;13.50;99.90;;;;;;5033894;28;20108;-69
2022/06/03 06:50:52;;;;;;;4.50;0.80;;;13.40;99.90;;;;;;5041165;28;20029;-71
2022/06/03 06:53:35;;;;;;;1.83;0.40;;;13.40;99.90;;;;;;5038296;28;20073;-71
2022/06/03 06:56:32;;;;;;;2.00;0.50;;;13.00;99.90;;;;;;5029911;28;20124;-70
2022/06/03 06:59:09;;;;;;;3.55;0.60;;;12.90;99.90;;;;;;5040501;28;20432;-72
2022/06/03 07:01:44;;;;;;;2.35;0.55;;;12.80;99.90;;;;;;5033981;28;20025;-71
2022/06/03 07:04:19;;;;;;;1.40;0.40;;;12.80;99.90;;;;;;5049766;28;20041;-72
2022/06/03 07:07:15;;;;;;;1.60;0.35;;;12.80;99.90;;;;;;5038866;28;20030;-73
2022/06/03 07:09:50;;;;;;;2.20;0.47;;;12.80;99.90;;;;;;5042438;28;20087;-72
2022/06/03 07:12:28;;;;;;;1.70;0.30;;;12.70;99.90;;;;;;5028656;28;20437;-72
2022/06/03 07:15:05;;;;;;;2.30;0.73;;;12.70;99.90;;;;;;5025253;28;20108;-72
2022/06/03 07:21:06;;;;;;;2.42;0.40;;;12.70;99.90;;;;;;5023415;28;20083;-72
2022/06/03 07:23:48;;;;;;;1.83;0.50;;;12.70;99.90;;;;;;5042942;28;20062;-72
2022/06/03 07:26:40;;;;;;;1.48;0.65;;;12.60;99.90;;;;;;5031149;28;20030;-72
2022/06/03 07:29:26;;;;;;;2.50;0.63;;;12.60;99.90;;;;;;5041009;28;20029;-72
2022/06/03 07:32:01;;;;;;;1.48;0.50;;;12.50;99.90;;;;;;5030000;28;20029;-72
2022/06/03 07:34:32;;;;;;;1.50;0.40;;;12.50;99.90;;;;;;5038132;28;20108;-72
2022/06/03 07:37:05;;;;;;;2.80;0.77;;;12.60;99.90;;;;;;5037815;28;20030;-72
2022/06/03 07:39:42;;;;;;;3.08;0.90;;;12.60;99.90;;;;;;5025624;28;20018;-73
2022/06/03 07:42:27;;;;;;;2.92;1.00;;;12.50;99.90;;;;;;5026413;28;20502;-73
2022/06/03 07:44:57;;;;;;;3.55;1.40;;;12.50;99.90;;;;;;5019124;28;20030;-73
2022/06/03 07:47:28;;;;;;;2.08;1.10;;;12.50;99.90;;;;;;5036953;28;20030;-72
2022/06/03 07:50:01;;;;;;;4.00;0.90;;;12.40;99.90;;;;;;5049397;28;20010;-71
2022/06/03 07:52:51;;;;;;;2.08;0.60;;;12.40;99.90;;;;;;5035648;28;20033;-71
2022/06/03 07:55:24;;;;;;;1.88;0.52;;;12.40;99.90;;;;;;5043161;28;20123;-72
2022/06/03 07:57:55;;;;;;;4.22;0.70;;;12.40;99.90;;;;;;5036499;28;20033;-72
2022/06/03 08:00:24;;;;;;;2.17;0.52;;;12.40;99.90;;;;;;5037241;28;20061;-71
2022/06/03 08:03:14;;;;;;;2.00;0.55;;;12.50;99.90;;;;;;5048496;28;20006;-70
2022/06/03 08:05:48;;;;;;;4.22;2.13;;;12.50;99.90;;;;;;5061466;28;20041;-70
2022/06/03 08:11:24;;;;;;;3.35;0.68;;;12.40;99.90;;;;;;5051562;28;20118;-70
2022/06/03 08:13:54;;;;;;;1.27;0.45;;;12.40;99.90;;;;;;5051832;28;20060;-72
2022/06/03 08:16:34;;;;;;;4.70;1.10;;;12.50;99.90;;;;;;5048737;28;20037;-71
2022/06/03 08:19:14;;;;;;;2.65;0.70;;;12.40;99.90;;;;;;5032983;28;20026;-72
2022/06/03 08:21:53;;;;;;;2.72;1.25;;;12.40;99.90;;;;;;5062520;28;20032;-72
2022/06/03 08:24:30;;;;;;;2.22;1.25;;;12.40;99.90;;;;;;5055864;28;20027;-73
2022/06/03 08:27:06;;;;;;;2.45;0.70;;;12.30;99.90;;;;;;5045866;28;20468;-72
2022/06/03 08:30:02;;;;;;;2.10;0.50;;;12.30;99.90;;;;;;5041571;28;20034;-72
2022/06/03 08:32:45;;;;;;;2.80;1.17;;;12.30;99.90;;;;;;5048672;28;20037;-72
2022/06/03 08:35:19;;;;;;;4.65;1.33;;;12.30;99.90;;;;;;5041911;28;20025;-72
2022/06/03 08:38:17;;;;;;;1.33;0.50;;;12.30;99.90;;;;;;5042369;28;20551;-73
2022/06/03 08:41:00;;;;;;;1.98;0.55;;;12.20;99.90;;;;;;5050348;28;20024;-72
2022/06/03 08:43:33;;;;;;;1.10;0.50;;;12.30;99.90;;;;;;5044878;28;20042;-72
2022/06/03 08:46:03;;;;;;;1.42;0.50;;;12.30;99.90;;;;;;5040606;28;20044;-72
2022/06/03 08:48:37;;;;;;;2.72;0.30;;;12.20;99.90;;;;;;5049346;28;20104;-72
2022/06/03 08:51:15;;;;;;;1.63;0.50;;;12.20;99.90;;;;;;5032850;28;20045;-72
2022/06/03 08:53:53;;;;;;;2.05;0.75;;;12.20;99.90;;;;;;5032916;28;20042;-70
2022/06/03 08:56:29;;;;;;;4.15;1.50;;;12.20;99.90;;;;;;5042673;28;20046;-71
2022/06/03 08:58:58;;;;;;;3.15;1.00;;;12.20;99.90;;;;;;5053777;28;20289;-72
2022/06/03 09:01:41;;;;;;;5.22;1.60;;;12.20;99.90;;;;;;5038838;28;20025;-71
2022/06/03 09:04:33;;;;;;;2.97;0.85;;;12.20;99.90;;;;;;5038548;28;20018;-71
2022/06/03 09:07:20;;;;;;;1.50;0.60;;;12.20;99.90;;;;;;5038205;28;20040;-70
2022/06/03 09:10:03;;;;;;;0.55;0.30;;;12.20;99.90;;;;;;5037278;28;20040;-70
2022/06/03 09:12:34;;;;;;;1.73;0.70;;;12.20;99.90;;;;;;5037741;28;20010;-70
2022/06/03 09:15:08;;;;;;;0.82;0.43;;;12.20;99.90;;;;;;5038251;28;20018;-70
2022/06/03 09:17:53;;;;;;;1.38;0.60;;;12.10;99.90;;;;;;5038537;28;20037;-70
2022/06/03 09:20:24;;;;;;;5.32;1.25;;;12.10;99.90;;;;;;5036854;28;20033;-70
2022/06/03 09:22:58;;;;;;;3.22;0.60;;;12.10;99.90;;;;;;5037737;28;20067;-70
2022/06/03 09:25:26;;;;;;;5.32;1.15;;;12.10;99.90;;;;;;5038120;28;20073;-71
2022/06/03 09:27:54;;;;;;;4.28;1.48;;;12.10;99.90;;;;;;5037912;28;20025;-71
2022/06/03 09:30:38;;;;;;;6.45;1.95;;;12.00;99.90;;;;;;5036750;28;20041;-70
2022/06/03 09:33:09;;;;;;;4.97;1.75;;;12.00;99.90;;;;;;5037324;28;20078;-71
2022/06/03 09:35:40;;;;;;;4.20;1.65;;;12.00;99.90;;;;;;5037170;28;20049;-71
2022/06/03 09:38:09;;;;;;;2.30;0.60;;;12.10;99.90;;;;;;5035021;28;20038;-70
2022/06/03 09:40:43;;;;;;;3.40;1.25;;;12.10;99.90;;;;;;5037253;28;20006;-70
2022/06/03 09:43:20;;;;;;;2.53;1.00;;;12.10;99.90;;;;;;5033125;28;20083;-70
2022/06/03 09:45:52;;;;;;;3.85;1.25;;;12.00;99.90;;;;;;5035828;28;20010;-70
2022/06/03 09:48:24;;;;;;;3.88;1.13;;;11.90;99.90;;;;;;5032783;28;20017;-71
2022/06/03 09:50:53;;;;;;;2.05;0.75;;;12.00;99.90;;;;;;5048172;28;20028;-71
2022/06/03 09:53:25;;;;;;;2.08;0.70;;;11.90;99.90;;;;;;5051837;28;20045;-71
2022/06/03 09:56:02;;;;;;;3.33;1.33;;;11.90;99.90;;;;;;5051343;28;20002;-71
2022/06/03 09:58:32;;;;;;;2.42;0.98;;;11.80;99.90;;;;;;5056227;28;20060;-71
2022/06/03 10:01:03;;;;;;;2.17;0.50;;;11.80;99.90;;;;;;5047345;28;20030;-71
2022/06/03 10:03:32;;;;;;;2.47;0.60;;;11.70;99.90;;;;;;5040572;28;20109;-69
2022/06/03 10:06:00;;;;;;;4.00;1.50;;;11.70;99.90;;;;;;5058287;28;20026;-69
2022/06/03 10:12:48;;;;;;;1.88;0.85;;;11.60;99.90;;;;;;5058069;28;20009;-69
2022/06/03 10:14:05;;;;;;;1.88;0.55;;;11.60;99.90;;;;;;5050954;28;20013;-69
2022/06/03 10:16:33;;;;;;;1.52;0.40;;;11.70;99.90;;;;;;5037495;28;20106;-69
2022/06/03 10:19:00;;;;;;;2.00;0.63;;;11.70;99.90;;;;;;5053093;28;20058;-70
2022/06/03 10:21:31;;;;;;;1.73;0.63;;;11.70;99.90;;;;;;5037286;28;20018;-69
2022/06/03 10:24:02;;;;;;;4.95;0.88;;;11.70;99.90;;;;;;5038014;28;20020;-69
2022/06/03 10:26:34;;;;;;;1.48;0.60;;;11.60;99.90;;;;;;5035899;28;20081;-69
2022/06/03 10:29:10;;;;;;;1.20;0.35;;;11.50;99.90;;;;;;5036593;28;20041;-71
2022/06/03 10:31:38;;;;;;;1.77;0.55;;;11.50;99.90;;;;;;5035691;28;20007;-69
2022/06/03 10:34:11;;;;;;;1.48;0.55;;;11.60;99.90;;;;;;5037030;28;20010;-70
2022/06/03 10:36:42;;;;;;;1.73;0.60;;;11.60;99.90;;;;;;5036237;28;20030;-69
2022/06/03 10:39:15;;;;;;;3.00;1.40;;;11.60;99.90;;;;;;5035839;28;20056;-69
2022/06/03 10:41:46;;;;;;;3.08;0.80;;;11.60;99.90;;;;;;5037270;28;20018;-70
2022/06/03 10:44:17;;;;;;;1.23;0.60;;;11.60;99.90;;;;;;5037870;28;20006;-70
2022/06/03 10:47:09;;;;;;;1.92;0.60;;;11.50;99.90;;;;;;5048401;28;20049;-70
2022/06/03 10:49:57;;;;;;;1.27;0.50;;;11.50;99.90;;;;;;5039040;28;20018;-70
2022/06/03 11:01:41;;;;;;;1.02;0.40;;;11.40;99.90;;;;;;5056124;28;20041;-70
2022/06/03 11:04:23;;;;;;;1.52;0.40;;;11.40;99.90;;;;;;5062060;28;20209;-70
2022/06/03 11:06:53;;;;;;;0.75;0.40;;;11.40;99.90;;;;;;5060505;28;20033;-71
2022/06/03 11:09:22;;;;;;;1.02;0.25;;;11.40;99.90;;;;;;5060533;28;20070;-70
2022/06/03 11:12:00;;;;;;;1.27;0.40;;;11.50;99.90;;;;;;5041589;28;20110;-71
2022/06/03 11:14:41;;;;;;;0.90;0.30;;;11.50;99.90;;;;;;5041033;28;20228;-70
2022/06/03 11:17:22;;;;;;;0.95;0.30;;;11.40;99.90;;;;;;5040873;28;20045;-70
2022/06/03 11:19:56;;;;;;;0.68;0.20;;;11.40;99.90;;;;;;5040906;28;20014;-70
2022/06/03 11:22:36;;;;;;;0.47;0.30;;;11.40;99.90;;;;;;5040557;28;20026;-70
2022/06/03 11:25:25;;;;;;;0.95;0.30;;;11.40;99.90;;;;;;5040334;28;20018;-70
2022/06/03 11:28:15;;;;;;;1.85;0.60;;;11.50;99.90;;;;;;5040475;28;20045;-70
2022/06/03 11:30:54;;;;;;;1.00;0.22;;;11.50;99.90;;;;;;5041014;28;20006;-70
2022/06/03 11:33:28;;;;;;;1.67;0.50;;;11.40;99.90;;;;;;5049784;28;20042;-70
2022/06/03 11:36:03;;;;;;;0.73;0.20;;;11.40;99.90;;;;;;5040994;28;20030;-70
2022/06/03 11:38:55;;;;;;;1.17;0.40;;;11.40;99.90;;;;;;5040525;28;20029;-70
2022/06/03 11:41:30;;;;;;;1.98;0.50;;;11.50;99.90;;;;;;5041793;28;20029;-70
2022/06/03 11:44:11;;;;;;;0.60;0.38;;;11.50;99.90;;;;;;5040299;28;20022;-70
2022/06/03 11:46:59;;;;;;;0.60;0.30;;;11.50;99.90;;;;;;5039861;28;20038;-70
2022/06/03 11:49:26;;;;;;;1.10;0.50;;;11.40;99.90;;;;;;5024959;28;20018;-70
2022/06/03 11:51:54;;;;;;;0.82;0.30;;;11.50;99.90;;;;;;5060389;28;20029;-69
2022/06/03 11:54:25;;;;;;;2.70;0.60;;;11.50;99.90;;;;;;5060065;28;20054;-70
2022/06/03 11:56:54;;;;;;;1.10;0.20;;;11.50;99.90;;;;;;5049839;28;20041;-70
2022/06/03 11:59:45;;;;;;;2.22;0.30;;;11.60;99.90;;;;;;5049816;28;20005;-70
2022/06/03 12:02:27;;;;;;;0.50;0.20;;;11.60;99.90;;;;;;5056196;28;20041;-70
2022/06/03 12:04:55;;;;;;;1.38;0.32;;;11.60;99.90;;;;;;5051048;28;20801;-69
2022/06/03 12:07:31;;;;;;;;;;;11.60;99.90;;;;;;5043741;28;20097;-69
2022/06/03 12:10:01;;;;;;;0.98;0.30;;;11.60;99.90;;;;;;5048598;28;19936;-69
2022/06/03 12:15:38;;;;;;;0.90;0.50;;;11.60;99.90;;;;;;5048750;28;20122;-68
2022/06/03 12:18:11;;;;;;;1.13;0.20;;;11.50;99.90;;;;;;5044079;28;20041;-68
2022/06/03 12:20:47;;;;;;;2.08;0.22;;;11.40;99.90;;;;;;5049820;28;20029;-68
2022/06/03 12:23:15;;;;;;;1.58;0.47;;;11.40;99.90;;;;;;5050363;28;20033;-68
2022/06/03 12:25:44;;;;;;;2.17;0.47;;;11.40;99.90;;;;;;5054245;28;20017;-68
2022/06/03 12:28:27;;;;;;;1.13;0.47;;;11.30;99.90;;;;;;5043489;28;20021;-69
2022/06/03 12:31:16;;;;;;;1.60;0.47;;;11.40;99.90;;;;;;5052577;28;20032;-68
2022/06/03 12:34:26;;;;;;;1.02;0.47;;;11.40;99.90;;;;;;5042015;28;20082;-69
2022/06/03 12:37:24;;;;;;;2.85;0.80;;;11.40;99.90;;;;;;5044042;28;20025;-69
2022/06/03 12:39:59;;;;;;;2.25;0.60;;;11.30;99.90;;;;;;5052910;28;20029;-69
2022/06/03 12:42:29;;;;;;;0.50;0.20;;;11.20;99.90;;;;;;5055185;28;20041;-68
2022/06/03 12:45:03;;;;;;;1.98;0.65;;;11.30;99.90;;;;;;5053245;28;20109;-69
2022/06/03 12:47:36;;;;;;;0.65;0.28;;;11.40;99.90;;;;;;5048315;28;20057;-69
2022/06/03 12:50:06;;;;;;;1.55;0.32;;;11.40;99.90;;;;;;5049627;28;20048;-69
2022/06/03 12:52:35;;;;;;;1.75;0.40;;;11.30;99.90;;;;;;5049568;28;20022;-69
2022/06/03 12:55:22;;;;;;;1.85;0.38;;;11.40;99.90;;;;;;5045494;28;20052;-68
2022/06/03 12:58:02;;;;;;;1.38;0.50;;;11.30;99.90;;;;;;5054575;28;20127;-69
2022/06/03 13:00:36;;;;;;;1.40;0.40;;;11.30;99.90;;;;;;5061924;28;20029;-69
2022/06/03 13:03:28;;;;;;;1.98;0.50;;;11.30;99.90;;;;;;5068909;28;20061;-69
2022/06/03 13:06:03;;;;;;;2.33;0.80;;;11.30;99.90;;;;;;5046709;28;20034;-68
2022/06/03 13:08:30;;;;;;;1.58;0.90;;;11.30;99.90;;;;;;5051056;28;20040;-68
2022/06/03 13:10:57;;;;;;;1.95;0.95;;;11.30;99.90;;;;;;5051329;28;20021;-68
2022/06/03 13:13:48;;;;;;;2.17;0.50;;;11.40;99.90;;;;;;5043119;28;20033;-68
2022/06/03 13:16:39;;;;;;;2.08;0.88;;;11.40;99.90;;;;;;5046609;28;20072;-68
2022/06/03 13:19:18;;;;;;;1.70;0.60;;;11.40;99.90;;;;;;5048110;28;20037;-68
2022/06/03 13:22:00;;;;;;;0.98;0.30;;;11.40;99.90;;;;;;5038405;28;20049;-69
2022/06/03 13:24:30;;;;;;;1.25;0.30;;;11.40;99.90;;;;;;5059175;28;20060;-68
2022/06/03 13:27:24;;;;;;;3.00;0.30;;;11.40;99.90;;;;;;5049472;28;20442;-68
2022/06/03 13:29:52;;;;;;;1.83;0.45;;;11.40;99.90;;;;;;5049245;28;20026;-69
2022/06/03 13:32:37;;;;;;;0.90;0.50;;;11.50;99.90;;;;;;5040796;28;20105;-68
2022/06/03 13:35:28;;;;;;;1.73;0.30;;;11.40;99.90;;;;;;5063122;28;20033;-68
2022/06/03 13:37:58;;;;;;;1.10;0.40;;;11.40;99.90;;;;;;5046884;28;20064;-68
2022/06/03 13:40:25;;;;;;;0.85;0.30;;;11.40;99.90;;;;;;5050742;28;20061;-68
2022/06/03 13:43:01;;;;;;;0.70;0.40;;;11.40;99.90;;;;;;5052015;28;20033;-68
2022/06/03 13:45:47;;;;;;;1.38;0.40;;;11.40;99.90;;;;;;5048084;28;20056;-68
2022/06/03 13:48:45;;;;;;;1.90;0.63;;;11.30;99.90;;;;;;5063747;28;20010;-68
2022/06/03 13:51:28;;;;;;;0.88;0.60;;;11.30;99.90;;;;;;5055902;28;20025;-68
2022/06/03 13:54:02;;;;;;;1.55;0.30;;;11.30;99.90;;;;;;5054464;28;20109;-69
2022/06/03 13:56:31;;;;;;;1.60;0.60;;;11.30;99.90;;;;;;5048819;28;20048;-68
2022/06/03 13:59:02;;;;;;;2.08;0.30;;;11.30;99.90;;;;;;5049883;28;20045;-68
2022/06/03 14:01:40;;;;;;;1.45;0.40;;;11.20;99.90;;;;;;5052296;28;20061;-68
2022/06/03 14:04:30;;;;;;;2.45;0.85;;;11.20;99.90;;;;;;5057738;28;20006;-68
2022/06/03 14:07:07;;;;;;;1.60;0.30;;;11.10;99.90;;;;;;5048539;28;20033;-68
2022/06/03 14:09:37;;;;;;;1.25;0.30;;;11.10;99.90;;;;;;5051494;28;20052;-68
2022/06/03 14:12:07;;;;;;;0.93;0.20;;;11.10;99.90;;;;;;5056869;28;20039;-68
2022/06/03 14:15:04;;;;;;;1.85;0.50;;;11.10;99.90;;;;;;5063393;28;20088;-68
2022/06/03 14:17:52;;;;;;;1.48;0.93;;;11.10;99.90;;;;;;5054874;28;20022;-68
2022/06/03 14:20:27;;;;;;;1.13;0.50;;;11.00;99.90;;;;;;5061140;28;20029;-69
2022/06/03 14:23:22;;;;;;;2.10;0.85;;;11.00;99.90;;;;;;5054434;28;20029;-68
2022/06/03 14:25:56;;;;;;;2.35;0.40;;;11.00;99.90;;;;;;5053631;28;20030;-69
2022/06/03 14:28:58;;;;;;;2.85;0.88;;;10.90;99.90;;;;;;5046977;28;20033;-69
2022/06/03 14:31:41;;;;;;;2.85;0.50;;;11.00;99.90;;;;;;5041794;28;20062;-69
2022/06/03 14:34:22;;;;;;;3.80;0.45;;;11.00;99.90;;;;;;5046306;28;20010;-68
2022/06/03 14:36:54;;;;;;;1.88;0.60;;;11.00;99.90;;;;;;5053606;28;20034;-68